Aérodrome :
LOGIN :

S'inscrire | Disclaimer

   EN    FR    IT 

 










Légende :    VFR   VFR Marginal   IFR   IFR Intensif   IFR Très Intensif
Visi : 
Plafond : 
>= 8 km
>= 3000ft
5 à 8 km
1000 à 3000 ft
1500m à 5 km
500 à 1000 ft
800 à 1500m
200 à 500 ft
< 800m
< 200 ft
Symboles :   Orages  Brouillard  Fortes neiges  Fortes précipitations  Vent > 20 kt
SIGMETs :   Divers  Orages  Givrage  Turbulence  Onde Orograph.  Cendres Volcan.







- Altitude de l'aérodrome : 1115 ft
- Code IATA : GRZ


LOWG - Graz

DERNIER METAR :
  • 221750Z 02004KT 9999 FEW050 SCT060 BKN075 01/M03 Q1012 R17/19//95 NOSIG

METARs EXPIRÉS :
  • 221720Z 05003KT 9999 FEW050 SCT060 BKN080 01/M03 Q1012 R17/19//95 NOSIG
  • 221650Z 05003KT 9999 FEW050 SCT060 BKN080 02/M03 Q1012 R17/19//95 NOSIG
  • 221620Z 06004KT 9999 FEW050 SCT060 BKN075 02/M03 Q1012 R17/19//95 NOSIG
  • 221550Z 08004KT 9999 BKN060 02/M03 Q1011 R17/19//95 NOSIG
  • 221520Z 11005KT 9999 BKN054 03/M03 Q1011 R17/19//95 NOSIG

TAF TAF LOWG
Valide du 22 à 18h jusqu'au 23 à 18h UTC


221715Z 2218/2318 35004KT 9999 FEW050 BKN070 TX06/2312Z TNM05/2305Z
PROB30
TEMPO 2301/2304 -FZRA BKN050
TEMPO 2310/2316 35010KT FEW050
Pas de NOTAMs connus pour ce terrain.
1 SIGMET publié pour la FIR Wien (LOVV) :
 
Givrage fort avec pluie surfondue
LOVV SIGMET 8 VALID 221700/221830 LOWW
LOVV WIEN FIR SEV ICE (FZRA) FCST WI N4820 E01550 - N4720 E01455 - N4715 E01300 - N4820 E01410 - N4820 E01550 SFC/3000FT MOV E NC=



MET'MAP, la Météo Aéronautique d'un coup d'oeil ! - Copyright ORBIFLY Décembre 2007 - Disclaimer

ORBIFLY MET'MAP TEAM :

Programmation & Développement : Alexandra Zaïnal
Conception & Développement : Baudouin d'Aumeries
Co-Programmation & Développement : Marc-Olivier Méhu
Soutien technique & logistique : Manuel Goepfert

Contact : metmap@orbifly.com




SOURCES & CREDITS :

   NOAA